createdAt,value
2022-12-15T00:02:17.244Z,65.97
2022-12-15T00:05:02.742Z,65.31
2022-12-15T00:07:48.182Z,65.24
2022-12-15T00:10:33.661Z,65.86
2022-12-15T00:13:19.128Z,65.93
2022-12-15T00:16:05.557Z,65.90
2022-12-15T00:18:50.956Z,65.31
2022-12-15T00:21:36.380Z,65.75
2022-12-15T00:24:21.867Z,65.03
2022-12-15T00:27:07.227Z,64.41
2022-12-15T00:29:52.367Z,64.90
2022-12-15T00:32:37.640Z,65.28
2022-12-15T00:35:23.039Z,65.44
2022-12-15T00:38:08.485Z,64.27
2022-12-15T00:40:35.345Z,65.05
2022-12-15T00:43:02.291Z,65.85
2022-12-15T00:45:49.120Z,65.55
2022-12-15T00:48:16.113Z,65.45
2022-12-15T00:50:53.291Z,64.57
2022-12-15T00:53:40.144Z,63.71
2022-12-15T00:56:25.604Z,63.49
2022-12-15T00:59:11.271Z,63.44
2022-12-15T01:01:56.827Z,63.96
2022-12-15T01:04:42.524Z,63.57
2022-12-15T01:07:27.905Z,64.08
2022-12-15T01:10:13.660Z,64.91
2022-12-15T01:12:58.994Z,64.89
2022-12-15T01:15:44.422Z,64.49
2022-12-15T01:18:29.939Z,64.44
2022-12-15T01:21:01.529Z,64.49
2022-12-15T01:23:28.967Z,64.44
2022-12-15T01:25:56.456Z,64.30
2022-12-15T01:28:23.620Z,64.58
2022-12-15T01:30:50.753Z,64.26
2022-12-15T01:33:18.841Z,64.82
2022-12-15T01:35:45.865Z,65.36
2022-12-15T01:38:12.552Z,64.96
2022-12-15T01:40:45.652Z,65.31
2022-12-15T01:43:15.453Z,65.12
2022-12-15T01:45:48.822Z,65.19
2022-12-15T01:48:26.711Z,65.54
2022-12-15T01:51:10.375Z,65.52
2022-12-15T01:53:50.032Z,65.76
2022-12-15T01:56:17.368Z,65.52
2022-12-15T01:58:45.187Z,65.55
2022-12-15T02:01:12.093Z,65.51
2022-12-15T02:03:39.629Z,64.83
2022-12-15T02:06:07.080Z,64.85
2022-12-15T02:08:34.048Z,65.08
2022-12-15T02:11:22.289Z,64.69
2022-12-15T02:14:00.148Z,64.86
2022-12-15T02:16:34.546Z,65.55
2022-12-15T02:19:36.825Z,65.83
2022-12-15T02:22:47.760Z,65.68
2022-12-15T02:25:25.531Z,65.44
2022-12-15T02:28:05.367Z,65.55
2022-12-15T02:31:08.854Z,66.08
2022-12-15T02:33:47.186Z,65.81
2022-12-15T02:36:27.858Z,65.70
2022-12-15T02:38:57.722Z,65.43
2022-12-15T02:41:36.646Z,64.33
2022-12-15T02:44:17.241Z,65.61
2022-12-15T02:47:23.642Z,64.86
2022-12-15T02:50:18.423Z,64.83
2022-12-15T02:52:47.838Z,65.18
2022-12-15T02:55:27.555Z,65.48
2022-12-15T02:57:54.255Z,65.72
2022-12-15T03:00:21.289Z,65.68
2022-12-15T03:02:51.465Z,64.69
2022-12-15T03:05:19.439Z,64.48
2022-12-15T03:07:46.497Z,64.63
2022-12-15T03:10:17.374Z,64.57
2022-12-15T03:12:44.950Z,65.34
2022-12-15T03:15:12.125Z,65.68
2022-12-15T03:17:39.380Z,65.23
2022-12-15T03:20:06.672Z,65.06
2022-12-15T03:22:33.446Z,64.34
2022-12-15T03:25:00.346Z,64.01
2022-12-15T03:27:27.235Z,64.02
2022-12-15T03:29:54.040Z,64.44
2022-12-15T03:32:20.939Z,65.24
2022-12-15T03:34:47.861Z,65.17
2022-12-15T03:37:14.730Z,65.43
2022-12-15T03:39:41.662Z,65.59
2022-12-15T03:42:08.487Z,65.99
2022-12-15T03:44:35.268Z,65.92
2022-12-15T03:47:03.715Z,66.49
2022-12-15T03:49:30.632Z,66.44
2022-12-15T03:51:57.516Z,66.57
2022-12-15T03:54:24.577Z,66.35
2022-12-15T03:56:51.280Z,67.19
2022-12-15T03:59:19.182Z,68.07
2022-12-15T04:01:48.060Z,67.33
2022-12-15T04:04:15.376Z,67.04
2022-12-15T04:06:42.205Z,66.88
2022-12-15T04:09:09.077Z,66.75
2022-12-15T04:11:36.087Z,66.39
2022-12-15T04:14:02.792Z,66.23
2022-12-15T04:16:29.873Z,65.74
2022-12-15T04:19:15.692Z,64.90
2022-12-15T04:21:42.427Z,64.79
2022-12-15T04:24:27.989Z,65.05
2022-12-15T04:27:13.585Z,65.95
2022-12-15T04:29:59.116Z,65.93
2022-12-15T04:32:44.422Z,66.31
2022-12-15T04:35:35.290Z,68.06
2022-12-15T04:38:20.642Z,68.35
2022-12-15T04:41:06.112Z,68.43
2022-12-15T04:43:51.669Z,69.17
2022-12-15T04:46:36.965Z,69.28
2022-12-15T04:49:22.406Z,69.16
2022-12-15T04:52:07.974Z,68.90
2022-12-15T04:54:53.212Z,68.95
2022-12-15T04:57:38.739Z,68.68
2022-12-15T05:00:24.897Z,69.29
2022-12-15T05:03:13.695Z,68.32
2022-12-15T05:06:03.288Z,69.08
2022-12-15T05:08:49.963Z,67.92
2022-12-15T05:11:35.611Z,68.64
2022-12-15T05:14:21.080Z,69.03
2022-12-15T05:17:06.562Z,68.90
2022-12-15T05:19:51.863Z,69.67
2022-12-15T05:22:37.290Z,69.40
2022-12-15T05:25:23.149Z,69.62
2022-12-15T05:28:08.666Z,69.48
2022-12-15T05:30:54.414Z,69.55
2022-12-15T05:33:21.289Z,68.86
2022-12-15T05:35:48.098Z,68.43
2022-12-15T05:38:14.911Z,68.00
2022-12-15T05:40:41.743Z,68.18
2022-12-15T05:43:08.519Z,67.55
2022-12-15T05:45:35.858Z,67.19
2022-12-15T05:48:02.670Z,66.37
2022-12-15T05:50:29.425Z,65.94
2022-12-15T05:52:58.375Z,64.69
2022-12-15T05:55:25.106Z,64.91
2022-12-15T05:57:55.186Z,65.02
2022-12-15T06:00:22.581Z,66.44
2022-12-15T06:02:50.022Z,65.55
2022-12-15T06:05:17.526Z,65.71
2022-12-15T06:07:44.439Z,66.07
2022-12-15T06:10:11.838Z,66.08
2022-12-15T06:12:38.682Z,67.07
2022-12-15T06:15:06.391Z,66.36
2022-12-15T06:17:33.156Z,64.85
2022-12-15T06:20:00.035Z,64.31
2022-12-15T06:22:29.849Z,64.13
2022-12-15T06:24:56.714Z,63.69
2022-12-15T06:27:23.508Z,63.57
2022-12-15T06:29:50.264Z,63.65
2022-12-15T06:32:16.909Z,63.49
2022-12-15T06:34:44.095Z,63.88
2022-12-15T06:37:11.478Z,63.46
2022-12-15T06:39:38.972Z,63.21
2022-12-15T06:42:06.274Z,62.83
2022-12-15T06:44:33.040Z,62.75
2022-12-15T06:47:00.062Z,62.35
2022-12-15T06:49:27.084Z,63.58
2022-12-15T06:51:53.867Z,63.97
2022-12-15T06:54:20.714Z,63.39
2022-12-15T06:56:49.938Z,64.32
2022-12-15T06:59:19.012Z,65.18
2022-12-15T07:01:45.997Z,63.94
2022-12-15T07:07:35.993Z,64.64
2022-12-15T07:10:02.961Z,65.66
2022-12-15T07:12:29.764Z,66.04
2022-12-15T07:14:56.624Z,64.68
2022-12-15T07:17:25.295Z,64.88
2022-12-15T07:19:52.064Z,64.84
2022-12-15T07:22:20.461Z,63.67
2022-12-15T07:24:47.293Z,63.30
2022-12-15T07:27:14.995Z,63.58
2022-12-15T07:29:42.338Z,63.08
2022-12-15T07:32:09.096Z,64.05
2022-12-15T07:34:35.803Z,63.27
2022-12-15T07:37:02.666Z,63.80
2022-12-15T07:39:29.710Z,64.10
2022-12-15T07:41:56.331Z,63.67
2022-12-15T07:44:23.471Z,64.68
2022-12-15T07:46:50.224Z,64.48
2022-12-15T07:49:17.892Z,65.16
2022-12-15T07:51:45.006Z,64.01
2022-12-15T07:54:12.680Z,64.73
2022-12-15T07:56:40.875Z,65.35
2022-12-15T07:59:08.061Z,65.10
2022-12-15T08:01:37.755Z,65.16
2022-12-15T08:04:04.759Z,66.53
2022-12-15T08:06:31.532Z,66.69
2022-12-15T08:08:58.556Z,66.93
2022-12-15T08:11:26.089Z,66.14
2022-12-15T08:14:02.724Z,65.74
2022-12-15T08:16:30.365Z,65.12
2022-12-15T08:18:57.441Z,65.43
2022-12-15T08:21:24.656Z,65.24
2022-12-15T08:23:51.502Z,65.12
2022-12-15T08:26:21.610Z,64.96
2022-12-15T08:28:52.715Z,65.66
2022-12-15T08:31:21.639Z,66.04
2022-12-15T08:33:48.938Z,65.74
2022-12-15T08:36:18.017Z,65.80
2022-12-15T08:38:45.983Z,65.57
2022-12-15T08:41:19.474Z,65.68
2022-12-15T08:43:49.199Z,66.21
2022-12-15T08:46:17.670Z,67.18
2022-12-15T08:48:45.160Z,67.16
2022-12-15T08:51:12.248Z,66.59
2022-12-15T08:53:39.334Z,66.70
2022-12-15T08:56:26.926Z,66.46
2022-12-15T08:58:58.734Z,66.98
2022-12-15T09:01:27.278Z,67.64
2022-12-15T09:03:55.427Z,68.54
2022-12-15T09:06:25.767Z,67.76
2022-12-15T09:09:01.811Z,67.48
2022-12-15T09:11:30.188Z,67.83
2022-12-15T09:13:59.488Z,68.25
2022-12-15T09:16:26.638Z,67.74
2022-12-15T09:18:55.332Z,66.67
2022-12-15T09:21:24.037Z,67.24
2022-12-15T09:23:53.315Z,67.17
2022-12-15T09:26:21.472Z,67.51
2022-12-15T09:28:50.125Z,68.19
2022-12-15T09:31:17.482Z,69.14
2022-12-15T09:33:45.071Z,68.05
2022-12-15T09:36:13.356Z,67.94
2022-12-15T09:38:41.735Z,68.02
2022-12-15T09:41:30.288Z,68.83
2022-12-15T09:44:03.403Z,67.49
2022-12-15T09:46:50.085Z,68.14
2022-12-15T09:49:42.282Z,67.02
2022-12-15T09:52:14.770Z,67.37
2022-12-15T09:54:43.468Z,68.22
2022-12-15T09:57:26.102Z,69.37
2022-12-15T10:00:21.382Z,69.48
2022-12-15T10:03:16.445Z,67.13
2022-12-15T10:06:18.480Z,66.52
2022-12-15T10:08:55.513Z,66.64
2022-12-15T10:11:57.125Z,66.83
2022-12-15T10:14:35.692Z,67.10
2022-12-15T10:17:27.785Z,67.84
2022-12-15T10:20:19.004Z,66.95
2022-12-15T10:22:46.321Z,67.08
2022-12-15T10:25:29.328Z,67.45
2022-12-15T10:28:14.144Z,67.36
2022-12-15T10:30:59.399Z,67.44
2022-12-15T10:33:28.800Z,68.77
2022-12-15T10:35:56.341Z,68.47
2022-12-15T10:38:45.548Z,67.28
2022-12-15T10:41:17.777Z,66.77
2022-12-15T10:46:36.461Z,66.48
2022-12-15T10:49:06.087Z,67.34
2022-12-15T10:51:33.627Z,66.49
2022-12-15T10:54:15.475Z,66.82
2022-12-15T10:56:57.995Z,67.72
2022-12-15T10:59:36.405Z,67.99
2022-12-15T11:05:18.462Z,67.39
2022-12-15T11:08:15.718Z,66.94
2022-12-15T11:11:45.276Z,67.68
2022-12-15T11:14:42.877Z,67.42
2022-12-15T11:17:10.243Z,67.74
2022-12-15T11:20:02.242Z,67.52
2022-12-15T11:22:43.839Z,69.15
2022-12-15T11:25:30.263Z,68.76
2022-12-15T11:27:58.077Z,66.71
2022-12-15T11:30:28.933Z,66.74
2022-12-15T11:32:58.552Z,67.92
2022-12-15T11:35:58.589Z,67.57
2022-12-15T11:38:34.187Z,67.12
2022-12-15T11:41:17.191Z,67.90
2022-12-15T11:43:53.352Z,67.36
2022-12-15T11:46:27.644Z,67.86
2022-12-15T11:49:16.265Z,68.51
2022-12-15T11:51:49.704Z,68.25
2022-12-15T11:54:48.120Z,68.30
2022-12-15T11:57:15.789Z,67.99
2022-12-15T11:59:51.662Z,68.88
2022-12-15T12:02:21.396Z,69.04
2022-12-15T12:05:39.548Z,69.13
2022-12-15T12:08:45.891Z,67.90
2022-12-15T12:11:15.721Z,67.75
2022-12-15T12:14:14.543Z,67.97
2022-12-15T12:16:44.309Z,67.24
2022-12-15T12:19:15.485Z,66.89
2022-12-15T12:21:51.287Z,67.45
2022-12-15T12:24:35.147Z,68.82
2022-12-15T12:27:06.745Z,69.15
2022-12-15T12:29:36.193Z,69.34
2022-12-15T12:32:16.099Z,69.66
2022-12-15T12:38:10.390Z,69.75
2022-12-15T12:40:45.999Z,69.23
2022-12-15T12:43:33.316Z,68.35
2022-12-15T12:46:26.967Z,69.74
2022-12-15T12:49:13.746Z,69.44
2022-12-15T12:51:41.936Z,69.16
2022-12-15T12:54:40.223Z,68.83
2022-12-15T12:57:12.996Z,69.28
2022-12-15T12:59:56.562Z,68.72
2022-12-15T13:02:26.267Z,67.79
2022-12-15T13:05:00.558Z,68.76
2022-12-15T13:07:34.876Z,68.84
2022-12-15T13:10:04.787Z,68.60
2022-12-15T13:12:52.058Z,68.67
2022-12-15T13:15:31.870Z,69.58
2022-12-15T13:18:16.404Z,69.27
2022-12-15T13:20:44.534Z,70.42
2022-12-15T13:23:23.680Z,70.01
2022-12-15T13:25:56.598Z,68.30
2022-12-15T13:28:45.760Z,67.69
2022-12-15T13:31:12.642Z,68.36
2022-12-15T13:33:52.509Z,69.50
2022-12-15T13:36:40.711Z,68.65
2022-12-15T13:39:16.713Z,69.06
2022-12-15T13:42:00.662Z,68.68
2022-12-15T13:44:35.524Z,68.70
2022-12-15T13:47:21.081Z,68.48
2022-12-15T13:50:01.674Z,68.59
2022-12-15T13:53:16.460Z,69.10
2022-12-15T13:55:28.001Z,67.78
2022-12-15T13:57:58.845Z,68.19
2022-12-15T14:00:25.635Z,67.61
2022-12-15T14:03:12.061Z,68.30
2022-12-15T14:05:41.649Z,68.88
2022-12-15T14:08:10.981Z,68.22
2022-12-15T14:10:44.532Z,68.31
2022-12-15T14:13:20.213Z,68.27
2022-12-15T14:15:59.490Z,67.44
2022-12-15T14:18:32.182Z,67.74
2022-12-15T14:21:00.281Z,67.37
2022-12-15T14:24:04.077Z,67.68
2022-12-15T14:26:32.003Z,67.55
2022-12-15T14:29:05.702Z,67.23
2022-12-15T14:31:32.899Z,67.88
2022-12-15T14:34:14.365Z,68.01
2022-12-15T14:36:42.474Z,67.54
2022-12-15T14:39:37.123Z,67.20
2022-12-15T14:42:04.573Z,67.48
2022-12-15T14:44:39.168Z,67.84
2022-12-15T14:47:09.113Z,67.05
2022-12-15T14:49:41.550Z,67.61
2022-12-15T14:52:32.332Z,68.37
2022-12-15T14:55:01.972Z,67.08
2022-12-15T14:57:44.925Z,66.75
2022-12-15T15:00:31.689Z,66.62
2022-12-15T15:03:06.720Z,66.39
2022-12-15T15:03:06.811Z,67.40
2022-12-15T15:03:07.201Z,68.23
2022-12-15T15:06:12.433Z,67.16
2022-12-15T15:08:48.367Z,67.56
2022-12-15T15:11:35.941Z,67.33
2022-12-15T15:14:13.552Z,67.31
2022-12-15T15:16:43.387Z,67.22
2022-12-15T15:19:21.555Z,67.23
2022-12-15T15:21:49.480Z,67.28
2022-12-15T15:24:16.450Z,67.24
2022-12-15T15:26:43.573Z,68.04
2022-12-15T15:29:34.550Z,67.42
2022-12-15T15:32:22.299Z,67.75
2022-12-15T15:34:49.644Z,68.09
2022-12-15T15:37:18.557Z,67.92
2022-12-15T15:39:47.450Z,67.76
2022-12-15T15:42:14.291Z,67.53
2022-12-15T15:44:41.258Z,67.56
2022-12-15T15:47:18.241Z,67.91
2022-12-15T15:49:45.885Z,67.91
2022-12-15T15:52:15.883Z,67.56
2022-12-15T15:54:43.353Z,67.47
2022-12-15T15:57:15.523Z,67.45
2022-12-15T15:59:44.313Z,67.24
2022-12-15T16:02:13.813Z,67.44
2022-12-15T16:04:42.454Z,67.32
2022-12-15T16:07:27.696Z,67.22
2022-12-15T16:09:54.841Z,67.15
2022-12-15T16:12:28.402Z,66.74
2022-12-15T16:14:55.759Z,66.83
2022-12-15T16:17:22.896Z,66.91
2022-12-15T16:19:49.557Z,67.32
2022-12-15T16:22:18.776Z,66.64
2022-12-15T16:24:46.216Z,67.29
2022-12-15T16:27:14.140Z,67.92
2022-12-15T16:29:42.913Z,68.11
2022-12-15T16:32:11.983Z,67.69
2022-12-15T16:34:39.920Z,67.98
2022-12-15T16:37:27.625Z,68.14
2022-12-15T16:39:54.476Z,68.37
2022-12-15T16:42:21.232Z,68.49
2022-12-15T16:44:48.058Z,68.53
2022-12-15T16:47:14.857Z,68.97
2022-12-15T16:49:41.879Z,69.52
2022-12-15T16:52:18.690Z,68.75
2022-12-15T16:54:48.139Z,67.76
2022-12-15T16:57:15.106Z,67.86
2022-12-15T16:59:42.009Z,67.89
2022-12-15T17:02:35.940Z,68.24
2022-12-15T17:05:03.178Z,68.29
2022-12-15T17:07:29.924Z,68.00
2022-12-15T17:09:56.744Z,67.50
2022-12-15T17:12:23.472Z,67.77
2022-12-15T17:14:50.296Z,67.41
2022-12-15T17:17:19.131Z,67.22
2022-12-15T17:20:11.802Z,67.28
2022-12-15T17:22:33.763Z,67.57
2022-12-15T17:25:00.663Z,67.73
2022-12-15T17:27:28.842Z,67.60
2022-12-15T17:29:56.580Z,67.69
2022-12-15T17:32:23.445Z,67.56
2022-12-15T17:34:50.387Z,67.54
2022-12-15T17:37:17.137Z,67.37
2022-12-15T17:39:50.985Z,67.55
2022-12-15T17:42:21.899Z,68.02
2022-12-15T17:44:49.195Z,68.99
2022-12-15T17:47:19.740Z,69.53
2022-12-15T17:49:47.554Z,68.53
2022-12-15T17:52:26.446Z,68.51
2022-12-15T17:54:53.526Z,69.06
2022-12-15T17:57:20.490Z,68.96
2022-12-15T17:59:47.400Z,68.95
2022-12-15T18:02:14.576Z,68.25
2022-12-15T18:04:42.121Z,68.15
2022-12-15T18:07:20.597Z,67.96
2022-12-15T18:09:47.982Z,67.69
2022-12-15T18:12:24.134Z,67.99
2022-12-15T18:14:52.185Z,67.68
2022-12-15T18:17:20.058Z,67.93
2022-12-15T18:19:46.882Z,68.38
2022-12-15T18:22:22.766Z,68.24
2022-12-15T18:24:51.480Z,68.07
2022-12-15T18:27:25.971Z,68.01
2022-12-15T18:29:53.219Z,67.86
2022-12-15T18:32:21.644Z,67.47
2022-12-15T18:34:48.620Z,67.62
2022-12-15T18:37:17.572Z,67.96
2022-12-15T18:39:45.180Z,68.14
2022-12-15T18:42:17.305Z,68.08
2022-12-15T18:44:47.083Z,68.08
2022-12-15T18:47:18.713Z,68.31
2022-12-15T18:49:45.642Z,67.97
2022-12-15T18:52:20.701Z,68.38
2022-12-15T18:54:48.924Z,69.12
2022-12-15T18:57:26.711Z,69.08
2022-12-15T18:59:57.747Z,68.90
2022-12-15T19:02:24.768Z,68.51
2022-12-15T19:04:51.509Z,68.74
2022-12-15T19:07:18.298Z,68.32
2022-12-15T19:09:45.110Z,67.84
2022-12-15T19:12:18.388Z,67.63
2022-12-15T19:14:47.217Z,67.19
2022-12-15T19:17:37.912Z,66.84
2022-12-15T19:20:34.349Z,67.18
2022-12-15T19:23:01.164Z,66.89
2022-12-15T19:25:29.562Z,67.25
2022-12-15T19:27:59.804Z,67.70
2022-12-15T19:30:29.058Z,67.67
2022-12-15T19:32:56.079Z,66.75
2022-12-15T19:35:23.034Z,66.72
2022-12-15T19:37:50.133Z,67.15
2022-12-15T19:40:20.936Z,67.00
2022-12-15T19:42:48.428Z,67.00
2022-12-15T19:45:21.357Z,66.84
2022-12-15T19:47:48.751Z,66.84
2022-12-15T19:50:17.524Z,66.89
2022-12-15T19:52:47.232Z,66.84
2022-12-15T19:55:18.171Z,66.86
2022-12-15T19:57:44.931Z,67.12
2022-12-15T20:00:22.662Z,67.28
2022-12-15T20:02:51.586Z,68.04
2022-12-15T20:05:19.426Z,67.48
2022-12-15T20:07:46.846Z,66.80
2022-12-15T20:10:23.321Z,66.26
2022-12-15T20:12:53.060Z,67.39
2022-12-15T20:15:22.674Z,67.34
2022-12-15T20:17:50.883Z,66.76
2022-12-15T20:20:19.509Z,66.87
2022-12-15T20:22:48.091Z,67.03
2022-12-15T20:25:17.244Z,67.28
2022-12-15T20:27:44.355Z,66.87
2022-12-15T20:30:19.251Z,66.49
2022-12-15T20:32:46.374Z,66.84
2022-12-15T20:35:17.272Z,66.84
2022-12-15T20:37:44.573Z,66.97
2022-12-15T20:40:26.654Z,67.14
2022-12-15T20:42:53.725Z,66.88
2022-12-15T20:45:23.382Z,66.89
2022-12-15T20:47:51.747Z,66.25
2022-12-15T20:50:36.443Z,66.09
2022-12-15T20:53:03.990Z,66.42
2022-12-15T20:55:31.614Z,66.79
2022-12-15T20:57:58.231Z,67.19
2022-12-15T21:00:24.863Z,67.41
2022-12-15T21:02:52.061Z,67.53
2022-12-15T21:05:24.622Z,66.90
2022-12-15T21:07:52.404Z,66.97
2022-12-15T21:10:20.438Z,66.37
2022-12-15T21:12:49.569Z,65.84
2022-12-15T21:15:22.655Z,65.85
2022-12-15T21:17:57.940Z,66.13
2022-12-15T21:20:39.857Z,65.65
2022-12-15T21:23:16.067Z,65.77
2022-12-15T21:25:43.097Z,65.27
2022-12-15T21:28:11.875Z,65.56
2022-12-15T21:30:39.129Z,66.14
2022-12-15T21:33:06.243Z,66.46
2022-12-15T21:35:32.912Z,66.48
2022-12-15T21:37:59.589Z,66.40
2022-12-15T21:40:28.692Z,66.26
2022-12-15T21:42:56.304Z,66.83
2022-12-15T21:45:24.994Z,66.73
2022-12-15T21:48:11.376Z,66.36
2022-12-15T21:50:38.655Z,66.37
2022-12-15T21:53:06.297Z,67.18
2022-12-15T21:55:33.250Z,67.78
2022-12-15T21:58:00.005Z,67.75
2022-12-15T22:00:26.785Z,67.77
2022-12-15T22:02:53.739Z,67.18
2022-12-15T22:05:25.269Z,66.89
2022-12-15T22:07:59.080Z,66.70
2022-12-15T22:10:25.743Z,66.81
2022-12-15T22:12:59.374Z,66.72
2022-12-15T22:15:26.694Z,66.19
2022-12-15T22:17:53.512Z,65.84
2022-12-15T22:20:22.503Z,65.84
2022-12-15T22:22:49.758Z,65.84
2022-12-15T22:25:18.085Z,65.79
2022-12-15T22:27:45.720Z,66.54
2022-12-15T22:30:24.635Z,66.48
2022-12-15T22:32:51.626Z,66.36
2022-12-15T22:35:21.930Z,66.15
2022-12-15T22:37:53.483Z,66.09
2022-12-15T22:40:21.131Z,66.07
2022-12-15T22:42:51.239Z,66.24
2022-12-15T22:45:20.557Z,66.33
2022-12-15T22:47:48.321Z,66.54
2022-12-15T22:50:24.363Z,67.33
2022-12-15T22:52:52.282Z,67.42
2022-12-15T22:55:20.360Z,67.64
2022-12-15T22:57:57.318Z,67.38
2022-12-15T23:00:24.000Z,67.49
2022-12-15T23:02:53.742Z,67.32
2022-12-15T23:05:20.496Z,67.14
2022-12-15T23:07:47.214Z,67.34
2022-12-15T23:10:34.480Z,67.21
2022-12-15T23:13:04.983Z,66.52
2022-12-15T23:15:50.641Z,66.67
2022-12-15T23:18:18.398Z,66.47
2022-12-15T23:20:45.559Z,66.88
2022-12-15T23:23:15.562Z,66.93
2022-12-15T23:25:42.298Z,67.40
2022-12-15T23:28:08.964Z,67.84
2022-12-15T23:30:36.116Z,67.36
2022-12-15T23:33:05.929Z,66.88
2022-12-15T23:35:32.603Z,66.35
2022-12-15T23:37:59.219Z,66.58
2022-12-15T23:40:25.913Z,66.73
2022-12-15T23:42:53.722Z,67.11
2022-12-15T23:45:20.816Z,67.18
2022-12-15T23:47:47.499Z,67.41
2022-12-15T23:50:14.279Z,67.22
2022-12-15T23:52:40.964Z,68.09
2022-12-15T23:55:10.973Z,67.70
2022-12-15T23:57:38.605Z,66.78
